Time;durP1;ratioP1;P1;durP2;ratioP2;P2;SDS_P1;SDS_P2;PMS_P1;PMS_P2;Temp;Humidity;BMP_temperature;BMP_pressure;BME280_temperature;BME280_humidity;BME280_pressure;Samples;Min_cycle;Max_cycle;Signal;HPM_P1;HPM_P2
2022/03/20 00:01:02;;;;;;;6.22;3.88;;;5.00;99.90;;;;;;5109236;28;20039;-73
2022/03/20 00:03:30;;;;;;;5.68;4.00;;;5.00;99.90;;;;;;5109996;28;20493;-74
2022/03/20 00:05:57;;;;;;;6.32;4.18;;;4.90;99.90;;;;;;5083784;28;20035;-74
2022/03/20 00:08:22;;;;;;;6.15;3.70;;;5.00;99.90;;;;;;5092170;28;20059;-74
2022/03/20 00:10:51;;;;;;;7.10;3.95;;;4.90;99.90;;;;;;5111029;28;20039;-74
2022/03/20 00:13:19;;;;;;;5.82;3.90;;;4.90;99.90;;;;;;5108715;28;20375;-74
2022/03/20 00:15:50;;;;;;;9.30;4.13;;;4.90;99.90;;;;;;5101370;28;20039;-74
2022/03/20 00:18:20;;;;;;;6.53;4.00;;;4.90;99.90;;;;;;5091484;28;20039;-73
2022/03/20 00:20:51;;;;;;;7.88;3.85;;;4.90;99.90;;;;;;5092281;28;20039;-73
2022/03/20 00:23:18;;;;;;;6.25;3.90;;;4.90;99.90;;;;;;5092253;28;20126;-74
2022/03/20 00:25:45;;;;;;;;;;;4.90;99.90;;;;;;5109448;28;20043;-74
2022/03/20 00:28:15;;;;;;;7.35;3.80;;;4.90;99.90;;;;;;5107843;28;19931;-74
2022/03/20 00:30:42;;;;;;;8.13;4.00;;;4.90;99.90;;;;;;5092017;28;20039;-74
2022/03/20 00:33:08;;;;;;;;;;;4.90;99.90;;;;;;5089405;28;20048;-74
2022/03/20 00:35:34;;;;;;;8.20;4.25;;;4.80;99.90;;;;;;5087652;28;19973;-74
2022/03/20 00:38:00;;;;;;;7.15;3.75;;;4.90;99.90;;;;;;5090927;28;20051;-75
2022/03/20 00:40:26;;;;;;;6.75;3.97;;;4.80;99.90;;;;;;5071849;28;20044;-75
2022/03/20 00:42:53;;;;;;;8.38;3.97;;;4.80;99.90;;;;;;5105583;28;20039;-75
2022/03/20 00:45:18;;;;;;;7.60;4.20;;;4.70;99.90;;;;;;5087705;28;20687;-74
2022/03/20 00:47:44;;;;;;;6.18;3.60;;;4.70;99.90;;;;;;5087244;28;20039;-74
2022/03/20 00:50:10;;;;;;;5.60;3.75;;;4.70;99.90;;;;;;5108834;28;20043;-74
2022/03/20 00:52:36;;;;;;;7.70;4.45;;;4.70;99.90;;;;;;5108650;28;20047;-75
2022/03/20 00:55:03;;;;;;;6.38;4.38;;;4.60;99.90;;;;;;5108199;28;20095;-75
2022/03/20 00:57:28;;;;;;;8.70;4.53;;;4.70;99.90;;;;;;5108755;28;20046;-74
2022/03/20 00:59:54;;;;;;;6.53;4.23;;;4.70;99.90;;;;;;5091867;28;20043;-74
2022/03/20 01:02:20;;;;;;;7.83;4.27;;;4.60;99.90;;;;;;5089052;28;20282;-74
2022/03/20 01:04:46;;;;;;;7.73;4.70;;;4.60;99.90;;;;;;5091583;28;20755;-74
2022/03/20 01:07:11;;;;;;;8.20;4.47;;;4.60;99.90;;;;;;5091520;28;20356;-74
2022/03/20 01:09:37;;;;;;;9.02;5.05;;;4.50;99.90;;;;;;5091690;28;20126;-74
2022/03/20 01:12:04;;;;;;;7.57;4.30;;;4.50;99.90;;;;;;5092563;28;20143;-74
2022/03/20 01:14:30;;;;;;;7.90;4.60;;;4.50;99.90;;;;;;5110091;28;20039;-74
2022/03/20 01:16:57;;;;;;;7.97;4.47;;;4.50;99.90;;;;;;5105238;28;20089;-74
2022/03/20 01:19:24;;;;;;;7.85;4.38;;;4.50;99.90;;;;;;5107140;28;20367;-74
2022/03/20 01:21:50;;;;;;;;;;;4.50;99.90;;;;;;5099929;28;20205;-75
2022/03/20 01:24:16;;;;;;;8.38;4.20;;;4.50;99.90;;;;;;5108532;28;19916;-75
2022/03/20 01:26:42;;;;;;;10.05;5.15;;;4.50;99.90;;;;;;5107626;28;20035;-75
2022/03/20 01:29:07;;;;;;;8.90;4.90;;;4.40;99.90;;;;;;5106811;28;20065;-75
2022/03/20 01:31:35;;;;;;;8.00;4.35;;;4.40;99.90;;;;;;5103115;28;20047;-74
2022/03/20 01:34:01;;;;;;;8.77;4.60;;;4.30;99.90;;;;;;5108326;28;20454;-73
2022/03/20 01:36:27;;;;;;;7.57;4.72;;;4.30;99.90;;;;;;5107901;28;20108;-74
2022/03/20 01:38:55;;;;;;;7.53;4.95;;;4.30;99.90;;;;;;5105356;28;20051;-74
2022/03/20 01:41:25;;;;;;;6.68;3.95;;;4.20;99.90;;;;;;5098326;28;20421;-74
2022/03/20 01:43:57;;;;;;;9.68;4.97;;;4.20;99.90;;;;;;5106699;28;20043;-74
2022/03/20 01:46:23;;;;;;;8.90;5.07;;;4.10;99.90;;;;;;5108340;28;20032;-74
2022/03/20 01:48:49;;;;;;;8.88;5.60;;;4.20;99.90;;;;;;5108298;28;20112;-74
2022/03/20 01:51:15;;;;;;;;;;;4.20;99.90;;;;;;5074446;28;20078;-75
2022/03/20 01:53:41;;;;;;;10.18;5.38;;;4.10;99.90;;;;;;5108267;28;19967;-75
2022/03/20 01:56:07;;;;;;;4.32;3.25;;;4.10;99.90;;;;;;5108130;28;20040;-74
2022/03/20 01:58:33;;;;;;;10.38;5.78;;;4.00;99.90;;;;;;5108654;28;20032;-74
2022/03/20 02:01:00;;;;;;;8.18;4.70;;;4.10;99.90;;;;;;5075239;28;20383;-74
2022/03/20 02:03:26;;;;;;;9.98;5.10;;;4.00;99.90;;;;;;5112502;28;20047;-74
2022/03/20 02:05:52;;;;;;;9.68;4.78;;;4.00;99.90;;;;;;5112263;28;20502;-73
2022/03/20 02:08:25;;;;;;;8.00;5.18;;;3.90;99.90;;;;;;5106707;28;20035;-75
2022/03/20 02:10:52;;;;;;;11.32;5.22;;;3.90;99.90;;;;;;5112424;28;20118;-73
2022/03/20 02:13:21;;;;;;;10.05;5.50;;;3.90;99.90;;;;;;5095465;28;20078;-74
2022/03/20 02:15:48;;;;;;;12.00;5.82;;;3.90;99.90;;;;;;5109977;28;20028;-73
2022/03/20 02:18:14;;;;;;;12.13;5.90;;;3.90;99.90;;;;;;5093791;28;20049;-73
2022/03/20 02:20:40;;;;;;;11.07;5.70;;;3.90;99.90;;;;;;5091735;28;20047;-74
2022/03/20 02:23:07;;;;;;;9.93;5.82;;;3.90;99.90;;;;;;5109901;28;20483;-74
2022/03/20 02:25:32;;;;;;;10.93;6.30;;;3.80;99.90;;;;;;5110635;28;20044;-74
2022/03/20 02:27:58;;;;;;;9.27;5.90;;;3.80;99.90;;;;;;5111531;28;20095;-74
2022/03/20 02:30:27;;;;;;;7.67;5.80;;;3.80;99.90;;;;;;5111576;28;20043;-74
2022/03/20 02:32:53;;;;;;;11.80;6.25;;;3.80;99.90;;;;;;5111536;28;20305;-74
2022/03/20 02:35:20;;;;;;;9.75;6.43;;;3.80;99.90;;;;;;5111259;28;20035;-74
2022/03/20 02:37:51;;;;;;;10.50;6.13;;;3.80;99.90;;;;;;5093784;28;20036;-73
2022/03/20 02:40:21;;;;;;;11.13;6.43;;;3.80;99.90;;;;;;5110941;28;20050;-74
2022/03/20 02:42:48;;;;;;;9.55;6.55;;;3.80;99.90;;;;;;5095136;28;20047;-74
2022/03/20 02:45:23;;;;;;;9.43;6.20;;;3.80;99.90;;;;;;5093598;28;20051;-74
2022/03/20 02:47:51;;;;;;;10.50;6.38;;;3.70;99.90;;;;;;5103949;28;20143;-74
2022/03/20 02:50:28;;;;;;;12.38;7.05;;;3.70;99.90;;;;;;5111377;28;20382;-74
2022/03/20 02:53:02;;;;;;;10.73;6.80;;;3.60;99.90;;;;;;5094007;28;20118;-75
2022/03/20 02:55:29;;;;;;;12.93;7.25;;;3.70;99.90;;;;;;5092952;28;20055;-74
2022/03/20 02:58:01;;;;;;;10.90;6.80;;;3.60;99.90;;;;;;5108105;28;20394;-74
2022/03/20 03:00:30;;;;;;;15.80;7.80;;;3.70;99.90;;;;;;5099787;28;20043;-74
2022/03/20 03:02:58;;;;;;;11.02;7.43;;;3.60;99.90;;;;;;5107863;28;20110;-74
2022/03/20 03:05:28;;;;;;;13.27;7.82;;;3.60;99.90;;;;;;5109644;28;20101;-74
2022/03/20 03:11:01;;;;;;;12.63;7.85;;;3.70;99.90;;;;;;5105459;28;20104;-74
2022/03/20 03:13:39;;;;;;;13.68;8.57;;;3.70;99.90;;;;;;5106334;28;20071;-74
2022/03/20 03:16:07;;;;;;;13.02;7.53;;;3.70;99.90;;;;;;5110440;28;20135;-74
2022/03/20 03:18:34;;;;;;;13.40;7.82;;;3.70;99.90;;;;;;5108576;28;20133;-75
2022/03/20 03:21:00;;;;;;;13.15;9.20;;;3.60;99.90;;;;;;5093675;28;20467;-74
2022/03/20 03:23:26;;;;;;;17.27;9.90;;;3.60;99.90;;;;;;5092884;28;20077;-75
2022/03/20 03:25:53;;;;;;;15.50;9.30;;;3.60;99.90;;;;;;5110191;28;20035;-74
2022/03/20 03:28:19;;;;;;;14.48;8.85;;;3.60;99.90;;;;;;5110290;28;20043;-75
2022/03/20 03:30:46;;;;;;;13.70;8.38;;;3.60;99.90;;;;;;5109922;28;20035;-74
2022/03/20 03:33:14;;;;;;;15.68;9.57;;;3.60;99.90;;;;;;5093423;28;20067;-74
2022/03/20 03:35:43;;;;;;;15.43;9.40;;;3.60;99.90;;;;;;5093451;28;20050;-74
2022/03/20 03:38:12;;;;;;;15.95;9.50;;;3.50;99.90;;;;;;5088956;28;20107;-74
2022/03/20 03:40:39;;;;;;;17.50;9.43;;;3.50;99.90;;;;;;5109185;28;20118;-74
2022/03/20 03:43:06;;;;;;;16.13;9.48;;;3.50;99.90;;;;;;5109856;28;20032;-74
2022/03/20 03:45:32;;;;;;;15.10;9.25;;;3.50;99.90;;;;;;5106319;28;20104;-75
2022/03/20 03:47:58;;;;;;;18.25;10.35;;;3.40;99.90;;;;;;5109001;28;20043;-74
2022/03/20 03:50:24;;;;;;;15.80;8.82;;;3.50;99.90;;;;;;5090292;28;20051;-75
2022/03/20 03:52:49;;;;;;;16.15;9.82;;;3.50;99.90;;;;;;5107475;28;20051;-73
2022/03/20 03:55:16;;;;;;;15.93;9.63;;;3.50;99.90;;;;;;5108283;28;20047;-74
2022/03/20 03:57:50;;;;;;;14.32;9.13;;;3.40;99.90;;;;;;5109517;28;20436;-74
2022/03/20 04:00:19;;;;;;;16.08;10.00;;;3.40;99.90;;;;;;5104659;28;20032;-74
2022/03/20 04:02:47;;;;;;;15.50;9.48;;;3.40;99.90;;;;;;5092154;28;20048;-74
2022/03/20 04:05:15;;;;;;;14.65;9.52;;;3.30;99.90;;;;;;5101368;28;20044;-74
2022/03/20 04:07:41;;;;;;;16.08;9.73;;;3.30;99.90;;;;;;5076309;28;20039;-74
2022/03/20 04:10:07;;;;;;;;;;;3.30;99.90;;;;;;5109331;28;20103;-73
2022/03/20 04:12:37;;;;;;;16.70;9.90;;;3.30;99.90;;;;;;5109820;28;19934;-74
2022/03/20 04:15:04;;;;;;;14.50;9.88;;;3.30;99.90;;;;;;5108623;28;20051;-74
2022/03/20 04:17:30;;;;;;;14.50;9.60;;;3.30;99.90;;;;;;5089198;28;20391;-74
2022/03/20 04:19:58;;;;;;;18.52;9.57;;;3.20;99.90;;;;;;5068112;28;20502;-73
2022/03/20 04:22:27;;;;;;;15.13;9.85;;;3.30;99.90;;;;;;5088214;28;20039;-73
2022/03/20 04:24:54;;;;;;;17.17;9.80;;;3.20;99.90;;;;;;5104155;28;20046;-73
2022/03/20 04:27:20;;;;;;;18.48;10.65;;;3.10;99.90;;;;;;5109207;28;20118;-73
2022/03/20 04:29:46;;;;;;;18.88;10.15;;;3.20;99.90;;;;;;5108826;28;20124;-75
2022/03/20 04:32:13;;;;;;;16.95;10.50;;;3.10;99.90;;;;;;5109279;28;20032;-73
2022/03/20 04:34:40;;;;;;;19.60;11.10;;;3.10;99.90;;;;;;5091318;28;20062;-73
2022/03/20 04:37:07;;;;;;;14.98;9.93;;;3.10;99.90;;;;;;5108882;28;20040;-73
2022/03/20 04:39:38;;;;;;;17.42;10.25;;;3.00;99.90;;;;;;5091842;28;20096;-74
2022/03/20 04:42:09;;;;;;;17.20;10.07;;;3.10;99.90;;;;;;5092493;28;20486;-73
2022/03/20 04:44:39;;;;;;;15.82;10.23;;;3.00;99.90;;;;;;5108446;28;20119;-73
2022/03/20 04:58:28;;;;;;;16.70;10.60;;;3.00;99.90;;;;;;5076755;28;20051;-74
2022/03/20 04:58:31;;;;;;;16.10;10.55;;;2.90;99.90;;;;;;5091296;28;20108;-74
2022/03/20 05:00:57;;;;;;;17.33;11.15;;;2.90;99.90;;;;;;5101895;28;20067;-74
2022/03/20 05:03:23;;;;;;;15.68;10.75;;;2.90;99.90;;;;;;5089702;28;20533;-74
2022/03/20 05:05:49;;;;;;;17.88;10.55;;;2.80;99.90;;;;;;5107358;28;20527;-75
2022/03/20 05:08:15;;;;;;;17.02;10.85;;;2.80;99.90;;;;;;5090642;28;20058;-74
2022/03/20 05:13:25;;;;;;;16.73;10.68;;;2.80;99.90;;;;;;5107493;28;20574;-75
2022/03/20 05:15:57;;;;;;;17.42;11.60;;;2.70;99.90;;;;;;5108253;28;20122;-75
2022/03/20 05:18:23;;;;;;;15.68;11.00;;;2.80;99.90;;;;;;5091134;28;20051;-75
2022/03/20 05:20:49;;;;;;;18.08;10.65;;;2.70;99.90;;;;;;5083145;28;20035;-74
2022/03/20 05:23:15;;;;;;;17.55;11.30;;;2.70;99.90;;;;;;5090099;28;20392;-74
2022/03/20 05:25:41;;;;;;;16.50;11.43;;;2.60;99.90;;;;;;5108003;28;20032;-74
2022/03/20 05:28:07;;;;;;;16.58;11.60;;;2.70;99.90;;;;;;5073143;28;20040;-74
2022/03/20 05:30:33;;;;;;;13.30;9.38;;;2.60;99.90;;;;;;5106993;28;20043;-74
2022/03/20 05:32:59;;;;;;;20.15;12.93;;;2.60;99.90;;;;;;5106288;28;20074;-74
2022/03/20 05:35:25;;;;;;;19.45;12.55;;;2.60;99.90;;;;;;5108443;28;20024;-73
2022/03/20 05:37:51;;;;;;;19.83;12.00;;;2.70;99.90;;;;;;5093598;28;20453;-73
2022/03/20 05:40:17;;;;;;;15.18;9.32;;;2.70;99.90;;;;;;5112198;28;20043;-73
2022/03/20 05:42:43;;;;;;;19.75;11.73;;;2.70;99.90;;;;;;5093150;28;20031;-73
2022/03/20 05:45:13;;;;;;;16.83;11.90;;;2.70;99.90;;;;;;5095207;28;20134;-74
2022/03/20 05:47:42;;;;;;;19.42;12.45;;;2.60;99.90;;;;;;5111169;28;20039;-74
2022/03/20 05:50:08;;;;;;;19.30;12.85;;;2.60;99.90;;;;;;5095061;28;20043;-74
2022/03/20 05:52:35;;;;;;;19.55;11.73;;;2.60;99.90;;;;;;5110956;28;20043;-74
2022/03/20 05:55:03;;;;;;;19.52;13.07;;;2.60;99.90;;;;;;5111002;28;20109;-73
2022/03/20 06:00:25;;;;;;;21.42;12.65;;;2.70;99.90;;;;;;5110750;28;20510;-74
2022/03/20 06:02:51;;;;;;;20.80;12.45;;;2.70;99.90;;;;;;5094981;28;20088;-74
2022/03/20 06:05:17;;;;;;;19.65;13.02;;;2.70;99.90;;;;;;5094167;28;20053;-75
2022/03/20 06:07:45;;;;;;;18.63;11.77;;;2.70;99.90;;;;;;5092379;28;20076;-74
2022/03/20 06:10:18;;;;;;;19.77;13.02;;;2.70;99.90;;;;;;5106870;28;20123;-74
2022/03/20 06:12:44;;;;;;;20.70;12.90;;;2.70;99.90;;;;;;5074746;28;20071;-75
2022/03/20 06:15:11;;;;;;;20.65;13.45;;;2.70;99.90;;;;;;5110185;28;20425;-74
2022/03/20 06:17:37;;;;;;;;;;;2.70;99.90;;;;;;5091452;28;20114;-73
2022/03/20 06:20:06;;;;;;;20.38;13.45;;;2.70;99.90;;;;;;5110377;28;19970;-74
2022/03/20 06:22:33;;;;;;;19.92;12.60;;;2.70;99.90;;;;;;5094619;28;20031;-75
2022/03/20 06:24:58;;;;;;;18.65;12.48;;;2.80;99.90;;;;;;5111404;28;20126;-73
2022/03/20 06:27:24;;;;;;;20.45;12.40;;;2.80;99.90;;;;;;5077526;28;20115;-73
2022/03/20 06:29:50;;;;;;;22.77;14.27;;;2.80;99.90;;;;;;5110639;28;20028;-73
2022/03/20 06:32:16;;;;;;;19.77;12.90;;;2.80;99.90;;;;;;5111316;28;20051;-74
2022/03/20 06:34:42;;;;;;;19.75;12.85;;;2.90;99.90;;;;;;5090731;28;20040;-74
2022/03/20 06:37:08;;;;;;;19.27;13.13;;;2.90;99.90;;;;;;5066956;28;20035;-73
2022/03/20 06:39:34;;;;;;;19.67;12.52;;;2.90;99.90;;;;;;5088580;28;20497;-73
2022/03/20 06:42:00;;;;;;;19.50;13.50;;;2.90;99.90;;;;;;5089187;28;20044;-74
2022/03/20 06:44:26;;;;;;;18.77;13.02;;;3.00;99.90;;;;;;5108924;28;20051;-73
2022/03/20 06:46:54;;;;;;;20.33;13.13;;;3.00;99.90;;;;;;5091992;28;20138;-74
2022/03/20 06:49:20;;;;;;;23.88;13.52;;;3.10;99.90;;;;;;5109678;28;20442;-74
2022/03/20 06:51:46;;;;;;;19.95;12.93;;;3.10;99.90;;;;;;5090566;28;20043;-73
2022/03/20 06:54:13;;;;;;;20.05;14.25;;;3.10;99.90;;;;;;5107361;28;20060;-73
2022/03/20 06:56:40;;;;;;;21.30;13.18;;;3.20;99.90;;;;;;5109972;28;20046;-74
2022/03/20 06:59:05;;;;;;;22.48;13.63;;;3.20;99.90;;;;;;5064857;28;20032;-74
2022/03/20 07:01:31;;;;;;;15.50;10.00;;;3.20;99.90;;;;;;5092334;28;20040;-73
2022/03/20 07:03:57;;;;;;;18.83;13.00;;;3.20;99.90;;;;;;5090350;28;20097;-73
2022/03/20 07:06:27;;;;;;;17.80;12.67;;;3.30;99.90;;;;;;5109750;28;20475;-74
2022/03/20 07:08:58;;;;;;;19.70;12.75;;;3.30;99.90;;;;;;5073398;28;20301;-74
2022/03/20 07:11:26;;;;;;;18.88;13.68;;;3.40;99.90;;;;;;5109632;28;20078;-74
2022/03/20 07:13:53;;;;;;;20.67;13.25;;;3.50;99.90;;;;;;5073687;28;20036;-74
2022/03/20 07:16:21;;;;;;;19.55;13.52;;;3.60;99.90;;;;;;5074363;28;20051;-74
2022/03/20 07:18:47;;;;;;;21.15;13.25;;;3.70;99.90;;;;;;5092891;28;20110;-74
2022/03/20 07:21:18;;;;;;;23.20;13.98;;;3.90;99.90;;;;;;5109726;28;20085;-73
2022/03/20 07:23:45;;;;;;;19.42;12.95;;;4.00;99.90;;;;;;5109546;28;20483;-73
2022/03/20 07:31:39;;;;;;;20.45;13.95;;;4.20;99.90;;;;;;5110345;28;20045;-73
2022/03/20 07:34:04;;;;;;;22.70;14.27;;;4.20;99.90;;;;;;5093033;28;20043;-73
2022/03/20 07:36:30;;;;;;;21.98;13.38;;;4.20;99.90;;;;;;5110177;28;20119;-73
2022/03/20 07:38:56;;;;;;;20.88;13.80;;;4.30;99.90;;;;;;5072575;28;20032;-73
2022/03/20 07:41:21;;;;;;;21.88;14.30;;;4.30;99.90;;;;;;5109588;28;20039;-73
2022/03/20 07:43:49;;;;;;;22.00;14.57;;;4.40;99.90;;;;;;5102663;28;20040;-72
2022/03/20 07:46:14;;;;;;;20.45;13.35;;;4.50;99.90;;;;;;5091905;28;20181;-72
2022/03/20 07:48:41;;;;;;;21.60;14.15;;;4.50;99.90;;;;;;5109403;28;20074;-71
2022/03/20 07:51:06;;;;;;;25.33;14.18;;;4.50;99.90;;;;;;5093054;28;20431;-72
2022/03/20 07:53:32;;;;;;;20.98;13.15;;;4.60;99.90;;;;;;5108929;28;20094;-72
2022/03/20 07:55:58;;;;;;;19.20;13.70;;;4.70;99.90;;;;;;5109596;28;20083;-72
2022/03/20 07:58:24;;;;;;;21.10;13.73;;;4.70;99.90;;;;;;5091134;28;20565;-73
2022/03/20 08:00:50;;;;;;;21.58;14.23;;;4.70;99.90;;;;;;5109247;28;20416;-73
2022/03/20 08:03:16;;;;;;;18.90;12.65;;;4.60;99.90;;;;;;5090625;28;20051;-73
2022/03/20 08:05:41;;;;;;;20.73;13.02;;;4.60;99.90;;;;;;5109091;28;20517;-74
2022/03/20 08:08:14;;;;;;;24.63;14.43;;;4.80;99.90;;;;;;5079135;28;20125;-74
2022/03/20 08:10:40;;;;;;;21.00;13.95;;;4.90;99.90;;;;;;5088914;28;20485;-79
2022/03/20 08:13:06;;;;;;;19.60;13.63;;;5.10;99.90;;;;;;5084488;28;20116;-77
2022/03/20 08:15:32;;;;;;;17.92;13.45;;;5.10;99.90;;;;;;5100811;28;20122;-73
2022/03/20 08:17:57;;;;;;;20.00;13.20;;;5.20;99.90;;;;;;5091799;28;20031;-73
2022/03/20 08:20:23;;;;;;;18.00;12.63;;;5.40;99.90;;;;;;5089491;28;20050;-73
2022/03/20 08:22:49;;;;;;;19.35;13.68;;;5.50;99.90;;;;;;5099712;28;20055;-74
2022/03/20 08:25:15;;;;;;;21.05;14.07;;;5.60;99.90;;;;;;5100924;28;20071;-73
2022/03/20 08:27:45;;;;;;;19.30;14.00;;;5.60;99.90;;;;;;5105803;28;20036;-73
2022/03/20 08:30:13;;;;;;;19.20;13.40;;;5.80;99.90;;;;;;5086912;28;20044;-74
2022/03/20 08:32:39;;;;;;;19.60;13.52;;;5.90;99.90;;;;;;5107801;28;20506;-73
2022/03/20 08:35:05;;;;;;;21.17;14.43;;;5.90;99.90;;;;;;5092220;28;20047;-73
2022/03/20 08:37:32;;;;;;;21.70;13.75;;;6.00;99.90;;;;;;5089970;28;20031;-74
2022/03/20 08:39:58;;;;;;;;;;;6.00;99.90;;;;;;5091550;28;20032;-74
2022/03/20 08:42:23;;;;;;;19.50;14.00;;;6.10;99.90;;;;;;5102386;28;20362;-73
2022/03/20 08:44:52;;;;;;;24.75;14.82;;;6.20;99.90;;;;;;5103653;28;20043;-73
2022/03/20 08:47:18;;;;;;;21.13;14.20;;;6.20;99.90;;;;;;5090805;28;20192;-72
2022/03/20 08:49:43;;;;;;;25.90;15.63;;;6.30;99.70;;;;;;5090266;28;20134;-72
2022/03/20 08:52:09;;;;;;;20.47;14.47;;;6.30;99.60;;;;;;5090030;28;20138;-72
2022/03/20 08:54:35;;;;;;;26.05;14.60;;;6.30;99.80;;;;;;5088583;28;20306;-72
2022/03/20 08:57:01;;;;;;;23.25;13.82;;;6.30;98.90;;;;;;5086279;28;20039;-73
2022/03/20 08:59:27;;;;;;;24.27;14.20;;;6.30;99.50;;;;;;5109263;28;20045;-72
2022/03/20 09:01:52;;;;;;;23.83;15.20;;;6.40;99.50;;;;;;5073885;28;20040;-72
2022/03/20 09:04:18;;;;;;;21.05;14.60;;;6.40;99.10;;;;;;5109208;28;20504;-72
2022/03/20 09:06:47;;;;;;;26.02;15.68;;;6.50;99.30;;;;;;5108905;28;20055;-72
2022/03/20 09:09:14;;;;;;;22.17;15.23;;;6.50;98.70;;;;;;5109788;28;20112;-72
2022/03/20 09:11:41;;;;;;;22.10;15.48;;;6.50;98.20;;;;;;5112268;28;20049;-72
2022/03/20 09:14:08;;;;;;;26.05;16.02;;;6.50;97.90;;;;;;5084828;28;20101;-72
2022/03/20 09:19:18;;;;;;;20.15;15.02;;;6.60;98.00;;;;;;5112587;28;20110;-73
2022/03/20 09:21:44;;;;;;;25.00;16.15;;;6.60;98.10;;;;;;5075385;28;20050;-72
2022/03/20 09:24:10;;;;;;;22.95;15.30;;;6.70;97.80;;;;;;5112629;28;20047;-72
2022/03/20 09:26:36;;;;;;;24.42;16.25;;;6.70;97.70;;;;;;5112828;28;20071;-72
2022/03/20 09:29:02;;;;;;;25.50;16.50;;;6.70;97.30;;;;;;5112926;28;20051;-73
2022/03/20 09:31:31;;;;;;;24.55;15.50;;;6.70;97.40;;;;;;5112890;28;20104;-73
2022/03/20 09:33:57;;;;;;;21.60;14.80;;;6.80;97.30;;;;;;5112263;28;20123;-73
2022/03/20 09:36:23;;;;;;;;;;;6.90;98.10;;;;;;5114283;28;20040;-73
2022/03/20 09:38:52;;;;;;;20.33;14.32;;;7.00;97.20;;;;;;5112082;28;19976;-73
2022/03/20 09:41:18;;;;;;;21.40;15.30;;;7.20;97.10;;;;;;5095850;28;20334;-73
2022/03/20 09:43:45;;;;;;;25.50;16.75;;;7.30;96.70;;;;;;5095456;28;20412;-72
2022/03/20 09:46:11;;;;;;;24.08;16.13;;;7.30;95.80;;;;;;5095232;28;20051;-73
2022/03/20 09:48:37;;;;;;;23.92;15.77;;;7.40;95.70;;;;;;5112222;28;20035;-72
2022/03/20 09:51:04;;;;;;;24.15;16.80;;;7.50;96.00;;;;;;5093448;28;20047;-72
2022/03/20 09:53:31;;;;;;;24.08;16.23;;;7.60;94.50;;;;;;5111941;28;20079;-73
2022/03/20 09:55:57;;;;;;;21.90;15.48;;;7.60;93.70;;;;;;5111629;28;20086;-72
2022/03/20 09:58:28;;;;;;;23.48;16.48;;;7.70;94.30;;;;;;5112058;28;20553;-72
2022/03/20 10:00:55;;;;;;;24.17;17.00;;;7.80;93.90;;;;;;5111936;28;20028;-72
2022/03/20 10:03:23;;;;;;;23.70;16.42;;;7.90;93.30;;;;;;5094983;28;20039;-72
2022/03/20 10:06:05;;;;;;;25.20;16.65;;;7.90;93.20;;;;;;5111867;28;20097;-72
2022/03/20 10:08:31;;;;;;;24.30;16.60;;;8.00;92.70;;;;;;5105412;28;20051;-72
2022/03/20 10:11:16;;;;;;;26.02;16.58;;;8.00;92.60;;;;;;5111412;28;20066;-72
2022/03/20 10:14:05;;;;;;;24.35;17.15;;;8.20;92.50;;;;;;5111890;28;20044;-72
2022/03/20 10:16:31;;;;;;;22.02;15.70;;;8.20;92.20;;;;;;5104932;28;20106;-71
2022/03/20 10:18:57;;;;;;;24.98;17.40;;;8.30;91.90;;;;;;5091220;28;20077;-72
2022/03/20 10:21:42;;;;;;;24.15;16.95;;;8.30;91.50;;;;;;5108037;28;20048;-72
2022/03/20 10:24:18;;;;;;;22.38;16.15;;;8.40;91.50;;;;;;5111631;28;20052;-72
2022/03/20 10:26:45;;;;;;;23.73;17.27;;;8.40;91.50;;;;;;5105562;28;20043;-72
2022/03/20 10:29:17;;;;;;;;;;;8.50;91.60;;;;;;5110656;28;20613;-71
2022/03/20 10:31:51;;;;;;;27.77;17.63;;;8.60;91.50;;;;;;5101632;28;20089;-71
2022/03/20 10:34:18;;;;;;;23.25;16.70;;;8.50;90.10;;;;;;5094005;28;20058;-71
2022/03/20 10:36:45;;;;;;;24.48;17.60;;;8.70;91.00;;;;;;5110900;28;20506;-70
2022/03/20 10:39:16;;;;;;;27.65;18.42;;;8.90;90.30;;;;;;5110619;28;20044;-72
2022/03/20 10:41:45;;;;;;;24.60;17.05;;;9.00;89.50;;;;;;5109871;28;20118;-72
2022/03/20 10:44:15;;;;;;;22.75;16.83;;;9.10;89.40;;;;;;5109346;28;20122;-70
2022/03/20 10:46:41;;;;;;;22.90;15.20;;;9.20;89.00;;;;;;5109679;28;20155;-71
2022/03/20 10:49:09;;;;;;;22.92;17.13;;;9.50;90.10;;;;;;5085832;28;20479;-71
2022/03/20 10:51:41;;;;;;;25.50;16.77;;;9.80;87.90;;;;;;5067393;28;20470;-72
2022/03/20 10:54:15;;;;;;;24.00;16.70;;;10.00;86.80;;;;;;5106495;27;20399;-72
2022/03/20 10:56:56;;;;;;;25.42;17.45;;;10.00;85.40;;;;;;5083195;27;20043;-71
2022/03/20 10:59:23;;;;;;;22.70;16.83;;;10.00;84.70;;;;;;5094572;27;20431;-72
2022/03/20 11:01:49;;;;;;;23.67;17.13;;;10.10;85.30;;;;;;5060961;27;20054;-72
2022/03/20 11:04:16;;;;;;;28.35;16.95;;;10.20;83.40;;;;;;5090503;27;20367;-70
2022/03/20 11:06:44;;;;;;;24.13;17.00;;;10.20;82.60;;;;;;5091912;27;20185;-71
2022/03/20 11:09:10;;;;;;;24.85;17.83;;;10.20;82.60;;;;;;5110223;27;20112;-71
2022/03/20 11:11:51;;;;;;;25.75;17.30;;;10.40;83.50;;;;;;5095061;27;20355;-71
2022/03/20 11:14:19;;;;;;;22.65;16.55;;;10.40;82.50;;;;;;5078717;27;20055;-72
2022/03/20 11:16:51;;;;;;;27.75;17.10;;;10.70;83.50;;;;;;5089019;28;20084;-71
2022/03/20 11:19:23;;;;;;;23.65;17.40;;;10.80;81.30;;;;;;5103401;28;20047;-71
2022/03/20 11:21:53;;;;;;;24.20;17.33;;;10.70;80.40;;;;;;5112983;27;20494;-71
2022/03/20 11:24:20;;;;;;;24.02;17.55;;;10.80;80.80;;;;;;5112627;27;20078;-71
2022/03/20 11:26:51;;;;;;;26.45;17.45;;;11.00;80.40;;;;;;5096901;27;20134;-71
2022/03/20 11:29:21;;;;;;;22.65;15.45;;;11.20;80.00;;;;;;5110403;27;20031;-78
2022/03/20 11:31:48;;;;;;;24.73;17.98;;;11.60;80.10;;;;;;5110351;27;20092;-73
2022/03/20 11:34:16;;;;;;;25.65;19.05;;;11.60;77.60;;;;;;5106672;27;20605;-74
2022/03/20 11:37:03;;;;;;;24.02;16.90;;;11.40;76.80;;;;;;5086845;27;20043;-75
2022/03/20 11:39:29;;;;;;;;;;;11.20;77.10;;;;;;5087504;27;20047;-76
2022/03/20 11:42:28;;;;;;;23.55;16.80;;;11.70;78.70;;;;;;5106925;27;19919;-73
2022/03/20 11:45:09;;;;;;;27.88;18.63;;;11.80;76.50;;;;;;5101921;27;21502;-75
2022/03/20 11:47:37;;;;;;;25.67;18.20;;;11.70;75.70;;;;;;5086925;27;20039;-75
2022/03/20 11:50:10;;;;;;;23.92;17.73;;;11.40;75.80;;;;;;5089860;27;20051;-75
2022/03/20 11:52:58;;;;;;;26.88;17.77;;;11.30;75.80;;;;;;5108558;27;20557;-77
2022/03/20 11:55:42;;;;;;;21.88;16.95;;;11.40;74.30;;;;;;5078150;27;20098;-76
2022/03/20 11:58:27;;;;;;;27.35;18.00;;;11.70;75.40;;;;;;5089300;27;20100;-74
2022/03/20 12:01:06;;;;;;;25.75;17.60;;;11.70;73.40;;;;;;5102237;27;20043;-76
2022/03/20 12:04:03;;;;;;;28.25;17.98;;;11.90;73.30;;;;;;5091902;27;20046;-75
2022/03/20 12:06:37;;;;;;;27.42;17.20;;;11.90;72.40;;;;;;5089015;27;20031;-76
2022/03/20 12:09:28;;;;;;;22.75;17.02;;;12.00;73.10;;;;;;5088453;27;20042;-73
2022/03/20 12:12:12;;;;;;;23.77;17.02;;;12.20;72.10;;;;;;5087164;27;20047;-74
2022/03/20 12:14:42;;;;;;;26.42;18.83;;;12.30;72.10;;;;;;5104823;27;20051;-75
2022/03/20 12:17:08;;;;;;;24.23;17.40;;;12.10;70.80;;;;;;5083969;27;20093;-74
2022/03/20 12:19:42;;;;;;;21.88;16.40;;;12.00;71.20;;;;;;5095662;27;20169;-73
2022/03/20 12:22:15;;;;;;;23.45;18.00;;;12.30;71.00;;;;;;5110207;27;20525;-73
2022/03/20 12:24:51;;;;;;;23.48;17.10;;;12.10;70.40;;;;;;5093643;27;21849;-72
2022/03/20 12:27:23;;;;;;;23.25;18.25;;;12.30;70.30;;;;;;5073148;28;20421;-73
2022/03/20 12:29:53;;;;;;;27.02;18.02;;;12.40;69.50;;;;;;5110280;27;20043;-72
2022/03/20 12:32:20;;;;;;;24.83;17.98;;;12.50;69.20;;;;;;5111915;27;20498;-73
2022/03/20 12:35:08;;;;;;;28.85;18.10;;;12.70;70.00;;;;;;5111912;27;20031;-73
2022/03/20 12:37:37;;;;;;;25.75;17.50;;;12.70;68.50;;;;;;5111816;27;20495;-72
2022/03/20 12:40:09;;;;;;;22.80;17.40;;;12.60;68.90;;;;;;5095307;27;20057;-71
2022/03/20 12:42:39;;;;;;;22.42;16.33;;;12.70;69.90;;;;;;5088984;27;20118;-71
2022/03/20 12:45:08;;;;;;;24.02;17.75;;;12.80;69.30;;;;;;5093706;27;20043;-71
2022/03/20 12:47:34;;;;;;;28.35;18.58;;;12.90;68.40;;;;;;5111724;28;20080;-72
2022/03/20 12:50:10;;;;;;;22.05;16.65;;;12.70;67.50;;;;;;5108064;28;20132;-71
2022/03/20 12:52:42;;;;;;;23.83;17.13;;;12.80;67.60;;;;;;5107573;27;20414;-72
2022/03/20 12:55:10;;;;;;;25.20;17.58;;;12.90;66.90;;;;;;5106800;27;20075;-72
2022/03/20 12:57:48;;;;;;;24.35;16.85;;;12.90;67.50;;;;;;5129589;27;20034;-73
2022/03/20 13:00:19;;;;;;;22.67;17.20;;;13.10;67.60;;;;;;5110921;27;20328;-72
2022/03/20 13:03:08;;;;;;;25.77;17.80;;;13.00;67.20;;;;;;5111152;28;20043;-73
2022/03/20 13:05:40;;;;;;;24.55;17.67;;;12.90;67.00;;;;;;5129628;28;20043;-76
2022/03/20 13:08:07;;;;;;;22.15;16.50;;;12.80;67.50;;;;;;5110283;28;20034;-76
2022/03/20 13:10:36;;;;;;;22.70;16.67;;;13.00;66.70;;;;;;5095135;28;20158;-77
2022/03/20 13:13:03;;;;;;;23.38;16.95;;;13.00;67.00;;;;;;5113026;28;20085;-77
2022/03/20 13:15:31;;;;;;;24.17;17.20;;;13.00;66.50;;;;;;5113234;28;20114;-77